TimeEST,TemperatureF,Dew PointF,Humidity,Sea Level PressureIn,VisibilityMPH,Wind Direction,Wind SpeedMPH,Gust SpeedMPH,PrecipitationIn,Events,Conditions,WindDirDegrees,DateUTC
12:53 AM,36.0,19.9,52,29.91,10.0,NNW,9.2,-,N/A,,Mostly Cloudy,340,2013-03-03 05:53:00
1:53 AM,34.0,19.0,54,29.91,10.0,NNW,6.9,-,N/A,,Partly Cloudy,340,2013-03-03 06:53:00
2:53 AM,33.1,18.0,54,29.89,10.0,NNW,8.1,-,N/A,,Partly Cloudy,340,2013-03-03 07:53:00
3:53 AM,32.0,18.0,56,29.89,10.0,NNW,8.1,-,N/A,,Clear,340,2013-03-03 08:53:00
4:53 AM,30.9,18.0,59,29.90,10.0,NW,4.6,-,N/A,,Clear,310,2013-03-03 09:53:00
5:53 AM,30.0,18.0,61,29.91,10.0,NW,4.6,-,N/A,,Clear,310,2013-03-03 10:53:00
6:53 AM,30.9,18.0,59,29.92,10.0,NW,5.8,-,N/A,,Clear,310,2013-03-03 11:53:00
7:53 AM,32.0,19.9,61,29.94,10.0,WNW,6.9,-,N/A,,Clear,290,2013-03-03 12:53:00
8:53 AM,37.0,18.0,46,29.95,10.0,NW,10.4,18.4,N/A,,Clear,320,2013-03-03 13:53:00
9:53 AM,39.0,18.0,43,29.93,10.0,NNW,10.4,-,N/A,,Clear,330,2013-03-03 14:53:00
10:53 AM,39.9,17.1,40,29.92,10.0,WNW,6.9,-,N/A,,Partly Cloudy,290,2013-03-03 15:53:00
11:53 AM,43.0,17.1,35,29.91,10.0,NW,13.8,-,N/A,,Partly Cloudy,320,2013-03-03 16:53:00
12:53 PM,46.9,18.0,32,29.88,10.0,NW,11.5,19.6,N/A,,Mostly Cloudy,310,2013-03-03 17:53:00
1:53 PM,46.0,17.1,31,29.86,10.0,West,13.8,21.9,N/A,,Partly Cloudy,280,2013-03-03 18:53:00
2:53 PM,46.9,18.0,32,29.85,10.0,NNW,6.9,16.1,N/A,,Partly Cloudy,330,2013-03-03 19:53:00
3:53 PM,46.9,18.0,32,29.84,10.0,WNW,11.5,-,N/A,,Clear,300,2013-03-03 20:53:00
4:53 PM,48.0,18.0,30,29.85,10.0,West,13.8,19.6,N/A,,Scattered Clouds,280,2013-03-03 21:53:00
5:53 PM,46.0,18.0,33,29.86,10.0,WNW,10.4,-,N/A,,Clear,300,2013-03-03 22:53:00
6:53 PM,43.0,19.9,40,29.89,10.0,WNW,5.8,-,N/A,,Clear,300,2013-03-03 23:53:00
7:53 PM,41.0,21.0,45,29.91,10.0,NW,5.8,-,N/A,,Clear,310,2013-03-04 00:53:00
8:53 PM,39.9,19.0,43,29.93,10.0,NW,9.2,-,N/A,,Clear,320,2013-03-04 01:53:00
9:53 PM,37.9,18.0,45,29.96,10.0,NW,8.1,-,N/A,,Clear,320,2013-03-04 02:53:00
10:53 PM,35.1,18.0,50,29.97,10.0,North,9.2,-,N/A,,Clear,350,2013-03-04 03:53:00
11:53 PM,33.1,18.0,54,29.98,10.0,NNW,4.6,-,N/A,,Clear,340,2013-03-04 04:53:00